Time;durP1;ratioP1;P1;durP2;ratioP2;P2;SDS_P1;SDS_P2;PMS_P1;PMS_P2;Temp;Humidity;BMP_temperature;BMP_pressure;BME280_temperature;BME280_humidity;BME280_pressure;Samples;Min_cycle;Max_cycle;Signal;HPM_P1;HPM_P2
2023/04/04 00:00:10;;;;;;;8.60;3.40;;;;;;;6.08;40.20;98242.16;5048347;28;20223;-70
2023/04/04 00:02:36;;;;;;;7.97;2.87;;;;;;;6.01;40.38;98239.09;5049811;28;20617;-69
2023/04/04 00:05:02;;;;;;;3.67;2.67;;;;;;;6.00;40.55;98229.63;5050252;28;20422;-70
2023/04/04 00:07:27;;;;;;;4.70;2.70;;;;;;;6.00;40.77;98232.22;5042210;28;20426;-70
2023/04/04 00:09:53;;;;;;;5.10;2.70;;;;;;;6.02;40.69;98230.34;5055373;28;20425;-70
2023/04/04 00:12:18;;;;;;;4.27;2.77;;;;;;;5.94;41.15;98223.00;5050382;28;20275;-70
2023/04/04 00:14:43;;;;;;;5.60;2.77;;;;;;;6.03;40.97;98221.63;5052720;28;20204;-70
2023/04/04 00:17:09;;;;;;;8.80;2.93;;;;;;;5.92;40.83;98218.84;5044468;28;20692;-70
2023/04/04 00:19:35;;;;;;;3.27;2.80;;;;;;;5.91;40.65;98212.81;5044167;28;20213;-71
2023/04/04 00:22:01;;;;;;;6.70;2.70;;;;;;;5.85;40.36;98218.41;5038657;28;20187;-71
2023/04/04 00:24:26;;;;;;;5.03;2.70;;;;;;;5.82;41.24;98218.59;5049154;28;20511;-71
2023/04/04 00:26:52;;;;;;;5.40;2.73;;;;;;;5.72;40.67;98213.16;4997583;28;20187;-71
2023/04/04 00:29:17;;;;;;;3.27;2.63;;;;;;;5.77;41.04;98210.25;5013372;28;20602;-70
2023/04/04 00:31:43;;;;;;;4.13;2.80;;;;;;;5.81;40.94;98214.31;5029942;28;20691;-71
2023/04/04 00:34:08;;;;;;;3.60;2.80;;;;;;;5.67;41.00;98213.41;5030670;28;20212;-71
2023/04/04 00:36:34;;;;;;;2.50;2.20;;;;;;;5.58;41.17;98210.59;5040939;28;20649;-69
2023/04/04 00:38:59;;;;;;;3.50;3.20;;;;;;;5.63;42.10;98203.31;5055321;28;20613;-70
2023/04/04 00:41:25;;;;;;;7.80;2.70;;;;;;;5.65;41.73;98206.66;5048110;28;20625;-71
2023/04/04 00:43:50;;;;;;;8.27;2.80;;;;;;;5.56;41.70;98202.84;5056412;28;20226;-69
2023/04/04 00:46:17;;;;;;;6.23;2.70;;;;;;;5.41;42.00;98206.44;5049900;28;20262;-69
2023/04/04 00:48:43;;;;;;;2.87;2.27;;;;;;;5.40;42.10;98196.97;5049507;28;20278;-68
2023/04/04 00:51:08;;;;;;;3.20;2.63;;;;;;;5.45;41.86;98195.75;5042686;28;20514;-69
2023/04/04 00:53:34;;;;;;;3.60;2.70;;;;;;;5.47;41.93;98203.44;5053168;28;20199;-70
2023/04/04 00:56:00;;;;;;;3.43;2.30;;;;;;;5.46;41.93;98196.56;5042888;28;20691;-71
2023/04/04 00:58:26;;;;;;;3.03;2.73;;;;;;;5.38;42.43;98191.84;5047988;28;20808;-70
2023/04/04 01:00:51;;;;;;;3.40;2.57;;;;;;;5.39;42.51;98190.91;5053229;28;20178;-70
2023/04/04 01:03:18;;;;;;;3.23;2.70;;;;;;;5.33;42.71;98197.34;5038441;28;20454;-69
2023/04/04 01:05:43;;;;;;;4.17;2.80;;;;;;;5.25;42.79;98185.72;5041231;28;20266;-69
2023/04/04 01:08:09;;;;;;;5.30;2.87;;;;;;;5.26;43.10;98185.66;5049357;28;20508;-70
2023/04/04 01:10:35;;;;;;;3.17;2.83;;;;;;;5.31;43.20;98188.78;5049422;28;20659;-70
2023/04/04 01:13:00;;;;;;;4.70;2.53;;;;;;;5.34;43.28;98183.41;5051646;28;20257;-71
2023/04/04 01:15:26;;;;;;;2.90;2.70;;;;;;;5.32;43.21;98180.06;5040762;28;20257;-71
2023/04/04 01:17:56;;;;;;;4.00;3.10;;;;;;;5.29;43.38;98182.03;5056991;28;20191;-70
2023/04/04 01:20:25;;;;;;;3.33;3.00;;;;;;;5.21;43.67;98188.53;5043035;28;20198;-72
2023/04/04 01:22:51;;;;;;;3.70;2.33;;;;;;;5.29;43.74;98185.47;5047223;28;20423;-70
2023/04/04 01:25:18;;;;;;;4.13;2.93;;;;;;;5.35;43.58;98174.69;5043481;28;20790;-70
2023/04/04 01:27:43;;;;;;;4.70;2.63;;;;;;;5.28;43.97;98177.75;5043426;28;20426;-71
2023/04/04 01:30:09;;;;;;;5.10;2.83;;;;;;;5.26;43.71;98175.25;5058454;28;20422;-69
2023/04/04 01:32:47;;;;;;;4.10;2.63;;;;;;;5.25;43.42;98175.34;5046588;28;20203;-70
2023/04/04 01:35:34;;;;;;;4.20;3.33;;;;;;;5.23;43.74;98170.25;5044251;28;20922;-71
2023/04/04 01:38:09;;;;;;;4.33;3.00;;;;;;;5.20;43.10;98175.63;5053602;28;20531;-70
2023/04/04 01:40:37;;;;;;;5.83;2.73;;;;;;;5.15;43.06;98169.88;5057509;28;20424;-71
2023/04/04 01:43:02;;;;;;;5.93;3.20;;;;;;;5.14;43.65;98181.22;5055812;28;20511;-70
2023/04/04 01:45:28;;;;;;;4.67;2.80;;;;;;;5.14;43.42;98176.84;5053869;28;20422;-71
2023/04/04 01:47:55;;;;;;;2.73;2.47;;;;;;;5.12;43.76;98178.69;5044634;28;20425;-69
2023/04/04 01:50:21;;;;;;;6.20;3.00;;;;;;;5.15;43.45;98173.31;5048064;28;20425;-71
2023/04/04 01:52:47;;;;;;;3.30;2.67;;;;;;;5.14;43.91;98176.00;5061778;28;21798;-70
2023/04/04 01:55:12;;;;;;;5.00;3.13;;;;;;;5.21;43.63;98167.75;5048306;28;20197;-69
2023/04/04 01:57:38;;;;;;;3.13;2.83;;;;;;;5.14;43.78;98165.63;5041618;28;20224;-69
2023/04/04 02:00:04;;;;;;;5.47;3.20;;;;;;;5.01;44.41;98171.56;5047150;28;20211;-70
2023/04/04 02:02:30;;;;;;;4.83;3.73;;;;;;;4.94;44.68;98159.88;5046953;28;20184;-70
2023/04/04 02:04:55;;;;;;;6.03;3.90;;;;;;;4.97;45.38;98164.88;5047673;28;20476;-70
2023/04/04 02:07:21;;;;;;;8.80;4.00;;;;;;;4.93;45.30;98173.78;5040413;28;20609;-70
2023/04/04 02:09:46;;;;;;;5.93;4.00;;;;;;;4.91;45.57;98171.28;5048197;28;20281;-70
2023/04/04 02:12:12;;;;;;;4.10;3.20;;;;;;;4.88;44.87;98171.47;5039516;28;20215;-69
2023/04/04 02:14:37;;;;;;;7.13;3.60;;;;;;;4.94;45.17;98166.84;5054025;28;20209;-69
2023/04/04 02:17:03;;;;;;;4.20;3.27;;;;;;;4.83;45.61;98167.47;5054505;28;20211;-70
2023/04/04 02:19:28;;;;;;;7.87;4.53;;;;;;;4.87;45.00;98168.97;5053125;28;20718;-70
2023/04/04 02:21:55;;;;;;;11.90;4.40;;;;;;;4.93;44.42;98171.19;5052998;28;20186;-70
2023/04/04 02:24:20;;;;;;;5.93;4.67;;;;;;;4.97;44.19;98159.69;5048718;28;20498;-70
2023/04/04 02:26:46;;;;;;;5.90;4.07;;;;;;;4.94;44.68;98167.66;5039595;28;20419;-70
2023/04/04 02:29:12;;;;;;;8.63;4.33;;;;;;;4.99;44.82;98163.03;5047629;28;20555;-69
2023/04/04 02:31:37;;;;;;;4.40;4.00;;;;;;;4.96;44.31;98168.41;5052519;28;20226;-70
2023/04/04 02:34:02;;;;;;;3.93;3.53;;;;;;;4.93;43.98;98168.56;5046498;28;20213;-70
2023/04/04 02:36:28;;;;;;;4.67;3.63;;;;;;;4.94;44.67;98170.25;5047018;28;20199;-68
2023/04/04 02:38:53;;;;;;;5.63;4.17;;;;;;;4.97;44.31;98167.47;5050018;28;20274;-69
2023/04/04 02:41:19;;;;;;;4.17;3.40;;;;;;;4.93;44.14;98171.19;5041665;28;20263;-71
2023/04/04 02:43:45;;;;;;;4.43;3.53;;;;;;;4.91;44.34;98166.09;5039948;28;20256;-70
2023/04/04 02:46:10;;;;;;;5.27;3.03;;;;;;;4.96;44.17;98165.81;5046098;28;20422;-69
2023/04/04 02:48:36;;;;;;;6.40;3.83;;;;;;;4.94;44.28;98162.47;5055557;28;20647;-71
2023/04/04 02:51:01;;;;;;;6.83;3.60;;;;;;;4.92;44.34;98162.56;5045475;28;20214;-70
2023/04/04 02:53:27;;;;;;;7.30;4.60;;;;;;;4.90;44.28;98163.59;5056320;28;20207;-71
2023/04/04 02:55:52;;;;;;;8.53;3.67;;;;;;;4.82;44.26;98160.59;5056325;28;20698;-70
2023/04/04 02:58:18;;;;;;;4.97;3.50;;;;;;;4.90;44.58;98167.00;5048211;28;20181;-69
2023/04/04 03:00:45;;;;;;;3.50;3.17;;;;;;;4.84;44.31;98164.81;5048580;28;20223;-68
2023/04/04 03:03:11;;;;;;;6.03;3.40;;;;;;;4.80;44.07;98163.31;5046764;28;20196;-71
2023/04/04 03:05:37;;;;;;;4.97;3.43;;;;;;;4.80;44.89;98158.13;5048118;28;20425;-69
2023/04/04 03:08:03;;;;;;;8.83;3.63;;;;;;;4.79;44.95;98155.63;5048166;28;20195;-71
2023/04/04 03:10:29;;;;;;;6.43;4.10;;;;;;;4.84;45.02;98161.34;5056278;28;20534;-70
2023/04/04 03:12:55;;;;;;;7.80;3.87;;;;;;;4.79;44.80;98160.81;5044419;28;20433;-71
2023/04/04 03:15:21;;;;;;;4.83;3.27;;;;;;;4.75;44.82;98166.19;5046254;28;20187;-70
2023/04/04 03:17:46;;;;;;;5.20;4.00;;;;;;;4.66;44.66;98158.94;5045740;28;20422;-71
2023/04/04 03:20:13;;;;;;;4.40;4.00;;;;;;;4.70;45.27;98157.00;5044592;28;20184;-70
2023/04/04 03:22:39;;;;;;;5.13;3.67;;;;;;;4.74;45.02;98161.06;5059019;28;20183;-70
2023/04/04 03:25:05;;;;;;;6.83;3.77;;;;;;;4.74;44.89;98154.13;5057629;28;20536;-70
2023/04/04 03:27:31;;;;;;;5.20;3.90;;;;;;;4.54;44.91;98163.09;5059512;28;20672;-71
2023/04/04 03:29:58;;;;;;;3.87;3.30;;;;;;;4.64;45.50;98157.34;5049624;28;20190;-71
2023/04/04 03:32:23;;;;;;;5.50;3.77;;;;;;;4.65;45.49;98159.88;5044628;28;20499;-72
2023/04/04 03:34:49;;;;;;;4.10;3.60;;;;;;;4.63;45.02;98161.72;5038395;28;20453;-71
2023/04/04 03:37:14;;;;;;;4.87;3.50;;;;;;;4.66;45.48;98148.56;5048438;28;20657;-68
2023/04/04 03:39:40;;;;;;;4.77;3.73;;;;;;;4.71;44.84;98156.91;5059273;28;20191;-71
2023/04/04 03:42:05;;;;;;;7.33;3.87;;;;;;;4.78;44.53;98153.94;5050111;28;20229;-70
2023/04/04 03:44:31;;;;;;;6.00;3.70;;;;;;;4.76;45.15;98156.63;5052710;28;20709;-70
2023/04/04 03:46:56;;;;;;;4.30;3.87;;;;;;;4.72;45.16;98155.97;5049684;28;20644;-70
2023/04/04 03:49:21;;;;;;;6.20;3.93;;;;;;;4.63;45.13;98159.13;5048685;28;20210;-69
2023/04/04 03:51:47;;;;;;;5.97;4.07;;;;;;;4.60;45.35;98159.31;5045801;28;20561;-70
2023/04/04 03:54:13;;;;;;;6.93;3.63;;;;;;;4.45;45.49;98163.66;5044220;28;20587;-70
2023/04/04 03:56:38;;;;;;;4.00;3.40;;;;;;;4.35;45.88;98163.34;5041194;28;20257;-71
2023/04/04 03:59:03;;;;;;;4.27;3.73;;;;;;;4.40;45.83;98157.88;5056808;28;20179;-70
2023/04/04 04:01:29;;;;;;;8.40;3.70;;;;;;;4.15;46.89;98157.56;5050024;28;20207;-69
2023/04/04 04:03:55;;;;;;;4.53;3.40;;;;;;;4.21;46.70;98155.53;5044492;28;20214;-70
2023/04/04 04:06:20;;;;;;;3.93;3.57;;;;;;;4.33;46.77;98159.19;5048842;28;20175;-71
2023/04/04 04:08:46;;;;;;;6.10;3.90;;;;;;;4.07;46.78;98169.31;5047188;28;20424;-70
2023/04/04 04:11:11;;;;;;;5.83;3.40;;;;;;;4.18;47.12;98166.06;5041930;28;20183;-69
2023/04/04 04:13:37;;;;;;;4.13;3.73;;;;;;;4.12;46.40;98164.66;5053981;28;20331;-70
2023/04/04 04:16:03;;;;;;;4.27;3.30;;;;;;;4.13;45.74;98162.00;5041133;28;20264;-70
2023/04/04 04:18:29;;;;;;;4.80;3.53;;;;;;;4.22;46.20;98165.81;5049432;28;20428;-70
2023/04/04 04:20:58;;;;;;;5.03;3.97;;;;;;;4.12;46.46;98169.84;5056448;28;20509;-70
2023/04/04 04:23:23;;;;;;;6.60;3.90;;;;;;;4.12;46.19;98173.31;5048381;28;20252;-70
2023/04/04 04:25:49;;;;;;;5.03;3.67;;;;;;;4.14;46.61;98162.81;5048876;28;20456;-70
2023/04/04 04:28:14;;;;;;;5.63;3.87;;;;;;;3.95;46.88;98165.63;5048149;28;20544;-68
2023/04/04 04:30:40;;;;;;;4.57;3.50;;;;;;;3.84;46.82;98161.91;5047936;28;20186;-71
2023/04/04 04:33:05;;;;;;;5.70;4.00;;;;;;;3.93;46.66;98167.47;5041212;28;20211;-70
2023/04/04 04:35:31;;;;;;;6.33;3.90;;;;;;;3.99;47.29;98165.38;5050431;28;20186;-71
2023/04/04 04:37:56;;;;;;;4.97;3.43;;;;;;;3.97;47.07;98159.44;5039584;28;20188;-71
2023/04/04 04:40:21;;;;;;;6.10;3.90;;;;;;;3.80;47.03;98165.56;5042377;28;20796;-70
2023/04/04 04:42:47;;;;;;;4.87;4.13;;;;;;;3.72;47.69;98166.94;5047716;28;20183;-70
2023/04/04 04:45:12;;;;;;;5.27;4.10;;;;;;;3.84;46.74;98164.50;5042041;28;20194;-69
2023/04/04 04:47:38;;;;;;;6.00;4.23;;;;;;;3.88;47.29;98169.50;5049924;28;20176;-71
2023/04/04 04:50:04;;;;;;;8.13;4.80;;;;;;;3.95;47.17;98165.63;5047347;28;20190;-71
2023/04/04 04:52:30;;;;;;;10.30;5.40;;;;;;;3.87;46.97;98173.84;5044972;28;20183;-70
2023/04/04 04:54:56;;;;;;;7.23;4.53;;;;;;;3.96;47.25;98173.34;5050709;28;20469;-69
2023/04/04 04:57:22;;;;;;;10.13;4.90;;;;;;;4.04;47.17;98174.66;5043216;28;20460;-70
2023/04/04 04:59:48;;;;;;;5.73;4.70;;;;;;;4.02;47.31;98172.16;5045722;28;20226;-70
2023/04/04 05:02:14;;;;;;;6.60;5.13;;;;;;;4.05;46.72;98171.97;5043553;28;20234;-69
2023/04/04 05:04:40;;;;;;;8.80;4.70;;;;;;;3.98;46.71;98173.25;5044113;28;20195;-71
2023/04/04 05:07:07;;;;;;;5.40;4.30;;;;;;;3.99;47.01;98183.53;5048675;28;20444;-70
2023/04/04 05:09:32;;;;;;;6.17;4.70;;;;;;;4.04;46.95;98179.84;5046127;28;20195;-71
2023/04/04 05:11:58;;;;;;;8.13;5.00;;;;;;;4.03;46.71;98181.63;5041032;28;22452;-71
2023/04/04 05:14:23;;;;;;;7.77;4.63;;;;;;;3.95;47.13;98176.88;5056565;28;20206;-72
2023/04/04 05:16:49;;;;;;;6.73;5.67;;;;;;;3.99;47.61;98183.53;5042474;28;20676;-68
2023/04/04 05:19:15;;;;;;;6.60;4.50;;;;;;;3.98;47.30;98175.84;5053072;28;20655;-69
2023/04/04 05:21:40;;;;;;;5.90;4.50;;;;;;;4.00;46.95;98182.59;5048243;28;20206;-70
2023/04/04 05:24:06;;;;;;;5.60;5.00;;;;;;;3.97;47.21;98181.94;5053589;28;20210;-70
2023/04/04 05:26:31;;;;;;;6.93;4.40;;;;;;;3.90;46.84;98183.22;5048311;28;20186;-72
2023/04/04 05:28:58;;;;;;;7.30;5.83;;;;;;;3.99;46.85;98183.53;5055277;28;20175;-70
2023/04/04 05:31:24;;;;;;;9.17;5.10;;;;;;;4.08;46.84;98179.59;5055162;28;20206;-71
2023/04/04 05:33:49;;;;;;;6.90;4.63;;;;;;;4.12;46.49;98182.81;5039252;28;20489;-71
2023/04/04 05:36:15;;;;;;;6.00;4.67;;;;;;;4.10;46.01;98184.66;5047424;28;20195;-71
2023/04/04 05:38:40;;;;;;;6.10;4.70;;;;;;;4.13;46.09;98185.34;5038540;28;20645;-69
2023/04/04 05:41:06;;;;;;;7.03;5.27;;;;;;;4.10;46.81;98182.94;5042420;28;20294;-70
2023/04/04 05:43:31;;;;;;;5.87;4.83;;;;;;;4.22;45.94;98188.34;5043609;28;20215;-70
2023/04/04 05:45:57;;;;;;;8.67;4.90;;;;;;;4.22;46.31;98193.53;5050464;28;20281;-70
2023/04/04 05:48:22;;;;;;;8.20;5.73;;;;;;;4.21;45.47;98191.84;5054783;28;20674;-70
2023/04/04 05:50:48;;;;;;;6.80;4.77;;;;;;;4.31;46.09;98190.41;5044855;28;20668;-69
2023/04/04 05:53:14;;;;;;;7.57;4.70;;;;;;;4.42;45.72;98184.59;5035421;28;20227;-69
2023/04/04 05:55:39;;;;;;;7.40;4.93;;;;;;;4.48;45.81;98194.59;5036657;28;20683;-70
2023/04/04 05:58:04;;;;;;;6.57;4.63;;;;;;;4.53;46.22;98192.59;5043623;28;20454;-70
2023/04/04 06:00:30;;;;;;;5.90;4.53;;;;;;;4.74;44.98;98195.69;5037397;28;20281;-71
2023/04/04 06:02:57;;;;;;;8.80;4.50;;;;;;;4.86;44.25;98188.06;5040571;28;20667;-72
2023/04/04 06:05:23;;;;;;;8.13;4.80;;;;;;;4.91;43.34;98181.69;5038822;28;20195;-69
2023/04/04 06:07:48;;;;;;;11.63;4.30;;;;;;;5.13;43.24;98185.56;5037580;28;20440;-70
2023/04/04 06:10:14;;;;;;;5.90;4.03;;;;;;;5.31;42.97;98188.78;5037499;28;20931;-69
2023/04/04 06:12:39;;;;;;;10.57;4.40;;;;;;;5.45;42.16;98184.50;5049612;28;20556;-71
2023/04/04 06:15:06;;;;;;;8.57;3.60;;;;;;;5.50;41.91;98187.66;5039495;28;20207;-68
2023/04/04 06:17:31;;;;;;;11.60;4.03;;;;;;;5.61;41.32;98179.16;5040217;28;20292;-68
2023/04/04 06:19:56;;;;;;;4.27;3.87;;;;;;;5.79;40.80;98192.78;5021771;28;21066;-70
2023/04/04 06:22:22;;;;;;;7.50;4.17;;;;;;;5.87;39.85;98185.31;5029091;28;20370;-70
2023/04/04 06:24:47;;;;;;;7.80;4.50;;;;;;;5.96;39.71;98187.31;5027253;28;20234;-70
2023/04/04 06:27:13;;;;;;;5.73;3.90;;;;;;;6.14;39.52;98174.09;5041920;28;20186;-69
2023/04/04 06:29:38;;;;;;;6.33;3.97;;;;;;;6.34;39.35;98183.19;5034431;28;20218;-69
2023/04/04 06:32:04;;;;;;;9.57;4.40;;;;;;;6.55;39.54;98178.28;5038232;28;20325;-69
2023/04/04 06:34:30;;;;;;;7.40;4.07;;;;;;;6.66;39.23;98168.94;5047002;28;20206;-69
2023/04/04 06:36:56;;;;;;;7.40;3.80;;;;;;;6.82;39.07;98177.38;5039859;28;20468;-70
2023/04/04 06:39:21;;;;;;;6.00;4.30;;;;;;;7.00;38.47;98179.66;5040312;28;20184;-71
2023/04/04 06:41:47;;;;;;;5.67;4.13;;;;;;;7.17;37.88;98170.66;5046355;28;20179;-69
2023/04/04 06:44:13;;;;;;;8.37;3.97;;;;;;;7.21;36.97;98177.34;5033769;28;20298;-69
2023/04/04 06:46:39;;;;;;;7.63;4.60;;;;;;;7.36;37.38;98180.63;5035643;28;20205;-70
2023/04/04 06:49:05;;;;;;;7.60;3.90;;;;;;;7.48;36.80;98171.94;5037992;28;20194;-70
2023/04/04 06:51:32;;;;;;;5.30;4.07;;;;;;;7.61;36.62;98173.69;5036049;28;20443;-68
2023/04/04 06:53:59;;;;;;;6.43;4.00;;;;;;;7.76;36.47;98175.19;5047964;28;20527;-71
2023/04/04 06:56:25;;;;;;;6.43;4.17;;;;;;;7.86;36.14;98179.75;5033537;28;20488;-70
2023/04/04 06:58:51;;;;;;;6.03;4.27;;;;;;;7.94;35.76;98174.81;5039094;28;20835;-70
2023/04/04 07:01:17;;;;;;;4.67;3.90;;;;;;;8.03;35.14;98166.31;5048735;28;20567;-69
2023/04/04 07:03:43;;;;;;;10.00;4.10;;;;;;;8.14;35.13;98170.72;5043768;28;20448;-71
2023/04/04 07:06:09;;;;;;;5.27;3.63;;;;;;;8.14;35.42;98171.56;5046122;28;20175;-70
2023/04/04 07:08:35;;;;;;;10.63;3.63;;;;;;;8.27;34.92;98173.28;5044281;28;20475;-70
2023/04/04 07:11:00;;;;;;;7.60;4.87;;;;;;;8.39;35.28;98164.53;5042157;28;20520;-70
2023/04/04 07:13:26;;;;;;;8.97;3.43;;;;;;;8.60;34.50;98167.34;5043030;28;20210;-70
2023/04/04 07:15:51;;;;;;;7.07;3.70;;;;;;;8.77;34.10;98167.81;5034308;28;20207;-70
2023/04/04 07:18:17;;;;;;;5.27;3.60;;;;;;;8.82;34.13;98172.72;5036202;28;20560;-70
2023/04/04 07:20:45;;;;;;;6.07;4.03;;;;;;;8.86;33.12;98174.13;5049909;28;20179;-70
2023/04/04 07:23:10;;;;;;;20.10;3.50;;;;;;;8.86;33.13;98161.03;5042119;28;20240;-70
2023/04/04 07:25:37;;;;;;;6.30;2.90;;;;;;;8.99;32.24;98172.22;5034197;28;20434;-70
2023/04/04 07:28:02;;;;;;;3.47;2.80;;;;;;;8.94;31.47;98173.53;5034020;28;20266;-70
2023/04/04 07:30:31;;;;;;;4.00;2.93;;;;;;;8.97;31.23;98168.88;5050671;28;20792;-70
2023/04/04 07:33:00;;;;;;;5.23;2.90;;;;;;;9.05;31.13;98166.53;5039079;28;20274;-68
2023/04/04 07:35:25;;;;;;;3.43;3.10;;;;;;;9.20;30.80;98161.88;5033973;28;20473;-69
2023/04/04 07:37:51;;;;;;;5.47;3.10;;;;;;;9.30;31.10;98164.63;5039675;28;20842;-68
2023/04/04 07:40:17;;;;;;;8.10;2.93;;;;;;;9.29;30.66;98162.94;5031705;28;20190;-69
2023/04/04 07:42:44;;;;;;;4.60;2.90;;;;;;;9.43;30.19;98163.66;5042960;28;20656;-70
2023/04/04 07:45:10;;;;;;;3.87;2.90;;;;;;;9.26;29.99;98162.38;5038665;28;20476;-69
2023/04/04 07:47:36;;;;;;;3.93;2.67;;;;;;;9.04;30.01;98177.94;5039836;28;20422;-69
2023/04/04 07:50:02;;;;;;;4.63;2.87;;;;;;;9.10;30.27;98163.56;5041076;28;20427;-69
2023/04/04 07:52:28;;;;;;;6.50;3.40;;;;;;;9.12;30.47;98168.66;5043295;28;20180;-69
2023/04/04 07:54:54;;;;;;;5.40;3.60;;;;;;;9.47;30.85;98170.28;5040733;28;20507;-69
2023/04/04 07:57:19;;;;;;;5.07;3.00;;;;;;;9.56;30.50;98163.50;5046806;28;20767;-68
2023/04/04 07:59:46;;;;;;;7.43;3.60;;;;;;;9.77;29.95;98161.75;5051395;28;20205;-70
2023/04/04 08:02:11;;;;;;;3.47;3.00;;;;;;;9.85;30.02;98169.00;5056755;28;20186;-69
2023/04/04 08:04:36;;;;;;;4.97;2.90;;;;;;;9.82;29.87;98164.03;5047577;28;20799;-70
2023/04/04 08:07:02;;;;;;;8.33;3.00;;;;;;;9.90;29.44;98164.22;5043027;28;20179;-69
2023/04/04 08:09:33;;;;;;;4.53;3.20;;;;;;;10.17;29.58;98168.19;5038041;28;20241;-69
2023/04/04 08:11:58;;;;;;;5.20;3.33;;;;;;;10.21;29.31;98169.56;5047564;28;20183;-69
2023/04/04 08:14:24;;;;;;;3.30;3.00;;;;;;;10.47;29.37;98168.41;5055696;28;20445;-70
2023/04/04 08:16:50;;;;;;;5.97;3.17;;;;;;;10.44;29.09;98161.66;5057864;28;20651;-69
2023/04/04 08:19:16;;;;;;;5.67;3.30;;;;;;;10.59;28.69;98165.56;5050303;28;20218;-70
2023/04/04 08:21:41;;;;;;;3.93;3.10;;;;;;;10.39;28.71;98155.94;5042571;28;20441;-69
2023/04/04 08:24:07;;;;;;;9.17;3.27;;;;;;;10.47;28.91;98169.22;5055065;28;20203;-69
2023/04/04 08:26:32;;;;;;;4.77;3.40;;;;;;;10.73;28.74;98161.81;5049394;28;20211;-69
2023/04/04 08:28:58;;;;;;;4.23;3.43;;;;;;;10.45;28.96;98163.31;5038351;28;20282;-70
2023/04/04 08:31:23;;;;;;;7.27;3.97;;;;;;;10.19;29.48;98165.41;5049332;28;20233;-69
2023/04/04 08:33:48;;;;;;;5.33;3.67;;;;;;;10.44;29.02;98164.25;5037920;28;20246;-69
2023/04/04 08:36:15;;;;;;;8.77;3.60;;;;;;;10.75;29.34;98162.53;5037790;28;20225;-69
2023/04/04 08:38:40;;;;;;;5.30;3.13;;;;;;;11.05;28.34;98147.72;5040521;28;20197;-69
2023/04/04 08:41:06;;;;;;;9.03;3.40;;;;;;;11.22;28.30;98154.13;5035894;28;20418;-67
2023/04/04 08:43:33;;;;;;;6.57;4.30;;;;;;;11.21;27.50;98156.91;5039383;28;20548;-70
2023/04/04 08:45:59;;;;;;;6.03;3.63;;;;;;;11.34;27.49;98156.69;5031786;28;20179;-69
2023/04/04 08:48:26;;;;;;;7.43;3.87;;;;;;;11.56;27.51;98157.41;5038457;28;20423;-69
2023/04/04 08:50:56;;;;;;;6.80;4.10;;;;;;;11.13;28.02;98154.94;5027652;28;20808;-69
2023/04/04 08:53:22;;;;;;;7.10;3.87;;;;;;;10.78;27.98;98156.16;5042341;28;20512;-69
2023/04/04 08:55:47;;;;;;;3.20;2.90;;;;;;;10.94;27.86;98160.13;5041482;28;20943;-69
2023/04/04 08:58:13;;;;;;;6.07;3.23;;;;;;;10.49;28.07;98154.22;5048176;28;20321;-70
2023/04/04 09:00:40;;;;;;;3.93;3.20;;;;;;;11.09;27.91;98152.72;5051172;28;20179;-69
2023/04/04 09:03:14;;;;;;;6.70;3.80;;;;;;;11.41;27.38;98154.31;5047135;28;20195;-69
2023/04/04 09:05:40;;;;;;;4.00;3.60;;;;;;;11.57;26.72;98148.56;5045116;28;20448;-69
2023/04/04 09:08:06;;;;;;;9.97;4.57;;;;;;;11.72;26.28;98165.56;5050401;28;20420;-69
2023/04/04 09:10:32;;;;;;;5.27;2.90;;;;;;;10.96;26.69;98164.25;5050031;28;20418;-69
2023/04/04 09:12:57;;;;;;;5.60;3.33;;;;;;;10.96;27.14;98164.25;5039787;28;20895;-69
2023/04/04 09:15:23;;;;;;;7.93;3.40;;;;;;;11.05;27.15;98160.03;5046432;28;20783;-68
2023/04/04 09:17:49;;;;;;;4.60;3.43;;;;;;;10.52;27.72;98168.88;5033517;28;20211;-69
2023/04/04 09:20:36;;;;;;;5.97;3.57;;;;;;;10.28;28.29;98181.22;5048289;28;20938;-69
2023/04/04 09:23:07;;;;;;;6.57;4.10;;;;;;;10.28;28.33;98164.66;5040706;28;20222;-69
2023/04/04 09:25:33;;;;;;;6.40;3.43;;;;;;;10.45;28.84;98171.19;5045852;28;20445;-69
2023/04/04 09:28:01;;;;;;;3.80;3.40;;;;;;;10.56;28.62;98163.25;5056280;28;20456;-69
2023/04/04 09:30:27;;;;;;;8.93;3.80;;;;;;;10.67;28.01;98161.50;5040396;28;20897;-70
2023/04/04 09:32:52;;;;;;;8.77;3.50;;;;;;;11.31;27.85;98159.56;5048404;28;20521;-69
2023/04/04 09:35:18;;;;;;;4.90;3.40;;;;;;;11.83;27.04;98149.72;5028791;28;20203;-69
2023/04/04 09:37:44;;;;;;;8.47;4.10;;;;;;;12.24;26.79;98161.91;5045384;28;20241;-68
2023/04/04 09:40:11;;;;;;;9.50;3.60;;;;;;;12.36;25.57;98163.41;5047791;28;20457;-70
2023/04/04 09:42:37;;;;;;;15.30;8.47;;;;;;;12.61;25.72;98155.88;5049630;28;21234;-70
2023/04/04 09:45:03;;;;;;;22.20;13.17;;;;;;;13.23;25.87;98149.31;5054724;28;20542;-69
2023/04/04 09:47:31;;;;;;;4.00;3.20;;;;;;;13.33;24.83;98160.63;5041382;28;20480;-69
2023/04/04 09:49:58;;;;;;;5.50;3.10;;;;;;;13.41;25.05;98162.56;5052623;28;20943;-69
2023/04/04 09:52:23;;;;;;;5.03;3.50;;;;;;;13.62;24.54;98152.56;5049569;28;20425;-68
2023/04/04 09:54:59;;;;;;;4.50;3.20;;;;;;;13.69;25.21;98146.72;5047486;28;20849;-70
2023/04/04 09:57:31;;;;;;;4.03;3.07;;;;;;;13.24;25.03;98157.06;5038235;28;20206;-70
2023/04/04 10:00:01;;;;;;;7.73;3.87;;;;;;;13.21;25.00;98154.75;5044780;28;20437;-69
2023/04/04 10:02:29;;;;;;;4.57;2.97;;;;;;;13.41;24.91;98154.66;5051518;28;20528;-70
2023/04/04 10:04:56;;;;;;;4.73;3.07;;;;;;;13.66;23.99;98150.50;5047745;28;20453;-69
2023/04/04 10:07:28;;;;;;;4.60;2.73;;;;;;;13.73;24.29;98148.09;5047404;28;20432;-69
2023/04/04 10:09:53;;;;;;;3.23;2.80;;;;;;;13.76;23.92;98145.97;5047871;28;20453;-70
2023/04/04 10:12:25;;;;;;;4.30;3.13;;;;;;;13.35;23.86;98142.88;5051220;28;20461;-69
2023/04/04 10:14:57;;;;;;;5.97;3.80;;;;;;;12.41;24.64;98158.56;5050219;28;20248;-69
2023/04/04 10:17:24;;;;;;;4.37;2.80;;;;;;;12.33;24.72;98160.25;5053713;28;20501;-69
2023/04/04 10:19:51;;;;;;;6.77;3.20;;;;;;;12.90;25.23;98153.19;5047466;28;20545;-69
2023/04/04 10:22:19;;;;;;;3.50;3.03;;;;;;;13.29;25.00;98146.94;5048000;28;20425;-70
2023/04/04 10:24:45;;;;;;;4.47;2.80;;;;;;;13.83;24.01;98140.94;5043702;28;20892;-69
2023/04/04 10:27:11;;;;;;;3.90;3.07;;;;;;;14.03;23.63;98146.91;5049513;28;20513;-69
2023/04/04 10:29:36;;;;;;;4.33;3.60;;;;;;;14.28;23.79;98139.19;5054246;28;20201;-69
2023/04/04 10:32:04;;;;;;;4.50;2.90;;;;;;;14.47;23.58;98134.69;5049865;28;20203;-69
2023/04/04 10:34:46;;;;;;;4.90;3.30;;;;;;;14.62;23.65;98140.25;5058576;28;20213;-70
2023/04/04 10:37:14;;;;;;;9.13;7.13;;;;;;;14.73;23.44;98138.19;5041229;28;20456;-69
2023/04/04 10:39:48;;;;;;;18.50;12.13;;;;;;;15.04;23.88;98128.94;5050212;28;20437;-70
2023/04/04 10:42:15;;;;;;;8.77;6.83;;;;;;;15.29;23.30;98139.59;5054210;28;20459;-70
2023/04/04 10:44:41;;;;;;;5.47;3.43;;;;;;;14.87;21.87;98135.97;5051332;28;20460;-69
2023/04/04 10:47:17;;;;;;;7.93;4.03;;;;;;;14.94;22.69;98136.16;5051267;28;20472;-69
2023/04/04 10:49:44;;;;;;;3.43;2.63;;;;;;;15.29;22.47;98123.75;5043809;28;20194;-70
2023/04/04 10:52:11;;;;;;;6.90;3.43;;;;;;;15.51;21.99;98117.88;5056911;28;20413;-68
2023/04/04 10:54:37;;;;;;;3.63;2.87;;;;;;;15.36;21.80;98112.41;5058179;28;20833;-69
2023/04/04 10:57:02;;;;;;;3.97;3.00;;;;;;;15.02;22.13;98121.19;5051655;28;20453;-70
2023/04/04 10:59:28;;;;;;;10.80;4.30;;;;;;;15.14;22.43;98131.47;5049210;28;20191;-70
2023/04/04 11:01:58;;;;;;;6.93;3.70;;;;;;;15.14;22.54;98119.06;5052487;28;20183;-71
2023/04/04 11:04:34;;;;;;;5.70;3.90;;;;;;;15.34;22.48;98121.47;5050973;28;20210;-70
2023/04/04 11:07:11;;;;;;;3.93;3.00;;;;;;;15.24;21.50;98115.50;5052690;28;20520;-69
2023/04/04 11:09:53;;;;;;;4.43;2.93;;;;;;;14.73;22.29;98114.44;5051365;28;20836;-69
2023/04/04 11:12:26;;;;;;;4.67;2.87;;;;;;;15.01;21.78;98114.25;5050706;28;20461;-69
2023/04/04 11:14:55;;;;;;;5.37;3.40;;;;;;;15.10;22.28;98111.63;5062145;28;20448;-69
2023/04/04 11:17:48;;;;;;;6.30;3.13;;;;;;;15.22;22.16;98109.56;5047061;28;20974;-69
2023/04/04 11:20:16;;;;;;;5.00;3.07;;;;;;;15.17;21.64;98115.31;5051837;28;20467;-69
2023/04/04 11:22:42;;;;;;;3.50;3.10;;;;;;;15.29;21.77;98105.28;5050083;28;20860;-70
2023/04/04 11:25:26;;;;;;;5.43;3.23;;;;;;;14.94;21.76;98096.56;5048827;28;20437;-69
2023/04/04 11:27:55;;;;;;;4.07;3.13;;;;;;;15.23;22.05;98100.66;5044223;28;20433;-70
2023/04/04 11:30:21;;;;;;;6.13;3.20;;;;;;;14.98;21.42;98097.91;5059080;28;20563;-68
2023/04/04 11:32:49;;;;;;;3.40;3.10;;;;;;;15.15;22.21;98098.81;5044545;28;20529;-69
2023/04/04 11:35:15;;;;;;;4.57;3.20;;;;;;;15.09;21.86;98108.19;5059795;28;20263;-69